Time;durP1;ratioP1;P1;durP2;ratioP2;P2;SDS_P1;SDS_P2;PMS_P1;PMS_P2;Temp;Humidity;BMP_temperature;BMP_pressure;BME280_temperature;BME280_humidity;BME280_pressure;Samples;Min_cycle;Max_cycle;Signal;HPM_P1;HPM_P2
2024/01/14 00:00:52;;;;;;;111.55;40.63;;;-4.20;99.90;;;;;;5039356;28;20060;-79
2024/01/14 00:03:41;;;;;;;104.57;40.28;;;-4.20;99.90;;;;;;5046855;28;20565;-77
2024/01/14 00:06:29;;;;;;;109.45;40.67;;;-4.20;99.90;;;;;;5041977;28;20119;-79
2024/01/14 00:09:17;;;;;;;108.63;40.00;;;-4.20;99.90;;;;;;5023948;28;20036;-79
2024/01/14 00:12:07;;;;;;;113.68;42.47;;;-4.20;99.90;;;;;;5037998;28;20114;-78
2024/01/14 00:14:54;;;;;;;112.30;42.17;;;-4.20;99.90;;;;;;5038385;28;20100;-80
2024/01/14 00:17:42;;;;;;;114.55;44.58;;;-4.20;99.90;;;;;;5049572;28;20052;-78
2024/01/14 00:20:31;;;;;;;111.80;41.65;;;-4.30;99.90;;;;;;5071088;28;20104;-77
2024/01/14 00:23:18;;;;;;;121.03;42.92;;;-4.30;99.90;;;;;;5042693;28;20041;-78
2024/01/14 00:26:05;;;;;;;111.35;41.22;;;-4.30;99.90;;;;;;5038651;28;20048;-79
2024/01/14 00:28:58;;;;;;;130.23;44.45;;;-4.40;99.90;;;;;;5036209;28;20041;-79
2024/01/14 00:31:47;;;;;;;111.43;39.90;;;-4.40;99.90;;;;;;5032150;28;20063;-80
2024/01/14 00:34:35;;;;;;;113.93;43.97;;;-4.40;99.90;;;;;;5042736;28;20445;-78
2024/01/14 00:37:24;;;;;;;115.38;41.50;;;-4.40;99.90;;;;;;5042354;28;20060;-76
2024/01/14 00:40:12;;;;;;;128.93;45.50;;;-4.50;99.90;;;;;;5041442;28;20136;-79
2024/01/14 00:43:03;;;;;;;117.10;42.03;;;-4.50;99.90;;;;;;5034503;28;20422;-79
2024/01/14 00:45:53;;;;;;;117.47;44.05;;;-4.50;99.90;;;;;;5040296;28;20052;-80
2024/01/14 00:48:42;;;;;;;;;;;-4.50;99.90;;;;;;5043761;28;20044;-77
2024/01/14 00:51:30;;;;;;;123.20;43.08;;;-4.60;99.90;;;;;;5047920;28;19928;-81
2024/01/14 00:54:18;;;;;;;110.63;39.63;;;-4.50;99.90;;;;;;5041419;28;20425;-78
2024/01/14 00:57:07;;;;;;;113.82;41.70;;;-4.60;99.90;;;;;;5030205;28;20433;-80
2024/01/14 00:59:55;;;;;;;108.57;38.97;;;-4.50;99.90;;;;;;5034636;28;20054;-78
2024/01/14 01:02:43;;;;;;;117.78;43.10;;;-4.50;99.90;;;;;;5042291;28;20132;-78
2024/01/14 01:05:31;;;;;;;124.90;42.28;;;-4.60;99.90;;;;;;5040830;28;20528;-78
2024/01/14 01:08:20;;;;;;;129.70;44.22;;;-4.60;99.90;;;;;;5029661;28;20052;-77
2024/01/14 01:11:07;;;;;;;128.35;44.67;;;-4.60;99.90;;;;;;5036307;28;20108;-77
2024/01/14 01:14:00;;;;;;;125.40;43.35;;;-4.60;99.90;;;;;;5027157;28;20044;-80
2024/01/14 01:16:48;;;;;;;134.88;45.60;;;-4.70;99.90;;;;;;5044926;28;20045;-80
2024/01/14 01:19:35;;;;;;;127.25;43.83;;;-4.70;99.90;;;;;;5036763;28;20167;-76
2024/01/14 01:22:26;;;;;;;129.10;44.10;;;-4.70;99.90;;;;;;5050203;28;20853;-81
2024/01/14 01:25:13;;;;;;;121.90;43.30;;;-4.70;99.90;;;;;;5061449;28;20060;-76
2024/01/14 01:28:01;;;;;;;122.15;41.50;;;-4.70;99.90;;;;;;5057970;28;20048;-77
2024/01/14 01:30:50;;;;;;;123.03;43.60;;;-4.80;99.90;;;;;;5044621;28;20049;-81
2024/01/14 01:33:40;;;;;;;128.50;44.22;;;-4.80;99.90;;;;;;5032175;28;20068;-76
2024/01/14 01:36:27;;;;;;;125.88;44.42;;;-4.80;99.90;;;;;;5048569;28;20093;-79
2024/01/14 01:39:17;;;;;;;122.85;42.88;;;-4.80;99.90;;;;;;5044345;28;20880;-80
2024/01/14 01:42:06;;;;;;;116.00;42.40;;;-4.80;99.90;;;;;;5048354;28;20124;-78
2024/01/14 01:44:54;;;;;;;115.53;42.47;;;-4.80;99.90;;;;;;5029548;28;20391;-80
2024/01/14 01:47:42;;;;;;;127.53;44.42;;;-4.80;99.90;;;;;;5041291;28;20045;-79
2024/01/14 01:50:29;;;;;;;132.60;42.92;;;-4.80;99.90;;;;;;5056460;28;20056;-77
2024/01/14 01:53:19;;;;;;;121.55;42.15;;;-4.80;99.90;;;;;;5042338;28;20052;-78
2024/01/14 01:56:08;;;;;;;121.60;41.85;;;-4.80;99.90;;;;;;5041133;28;20049;-79
2024/01/14 01:58:55;;;;;;;116.22;43.08;;;-4.90;99.90;;;;;;5043193;28;20174;-78
2024/01/14 02:01:46;;;;;;;113.60;40.35;;;-4.90;99.90;;;;;;5026133;28;20049;-79
2024/01/14 02:04:34;;;;;;;124.07;42.25;;;-4.90;99.90;;;;;;5037385;28;20041;-79
2024/01/14 02:07:25;;;;;;;122.80;40.63;;;-5.00;99.90;;;;;;5045012;28;20048;-77
2024/01/14 02:10:14;;;;;;;113.38;40.28;;;-5.00;99.90;;;;;;5050408;28;20738;-80
2024/01/14 02:13:05;;;;;;;117.35;42.45;;;-5.00;99.90;;;;;;5050222;28;20776;-76
2024/01/14 02:15:55;;;;;;;121.03;40.70;;;-5.10;99.90;;;;;;5033165;28;20048;-79
2024/01/14 02:18:44;;;;;;;114.95;39.22;;;-5.20;99.90;;;;;;5042970;28;20059;-79
2024/01/14 02:21:48;;;;;;;115.45;40.10;;;-5.20;99.90;;;;;;5040517;28;20107;-78
2024/01/14 02:24:37;;;;;;;117.85;39.40;;;-5.20;99.90;;;;;;5046066;28;20041;-77
2024/01/14 02:27:26;;;;;;;123.25;41.13;;;-5.30;99.90;;;;;;5051217;28;20099;-78
2024/01/14 02:30:14;;;;;;;116.63;41.55;;;-5.30;99.90;;;;;;5054389;28;20052;-80
2024/01/14 02:33:02;;;;;;;119.57;41.03;;;-5.30;99.90;;;;;;5032009;28;20100;-79
2024/01/14 02:35:53;;;;;;;125.72;41.05;;;-5.30;99.90;;;;;;5049265;28;20041;-80
2024/01/14 02:38:40;;;;;;;112.32;40.63;;;-5.30;99.90;;;;;;5037105;28;20052;-78
2024/01/14 02:41:28;;;;;;;114.35;41.13;;;-5.20;99.90;;;;;;5041216;28;20111;-78
2024/01/14 02:44:15;;;;;;;115.10;40.15;;;-5.20;99.90;;;;;;5045319;28;20172;-80
2024/01/14 02:47:03;;;;;;;126.30;44.00;;;-5.30;99.90;;;;;;5054201;28;20033;-78
2024/01/14 02:49:55;;;;;;;129.90;45.35;;;-5.30;99.90;;;;;;5037008;28;20367;-80
2024/01/14 02:52:49;;;;;;;133.82;45.72;;;-5.30;99.90;;;;;;5024698;28;20500;-78
2024/01/14 02:55:37;;;;;;;126.00;42.20;;;-5.40;99.90;;;;;;5036834;28;20121;-80
2024/01/14 02:58:29;;;;;;;126.75;43.05;;;-5.40;99.90;;;;;;5034578;28;20092;-79
2024/01/14 03:01:17;;;;;;;120.00;40.80;;;-5.40;99.90;;;;;;5037184;28;20048;-80
2024/01/14 03:04:04;;;;;;;109.20;39.63;;;-5.30;99.90;;;;;;5041531;28;20360;-76
2024/01/14 03:06:52;;;;;;;110.00;39.20;;;-5.30;99.90;;;;;;5050502;28;20059;-79
2024/01/14 03:09:39;;;;;;;111.60;39.97;;;-5.20;99.90;;;;;;5050118;28;20097;-80
2024/01/14 03:12:27;;;;;;;127.68;44.70;;;-5.30;99.90;;;;;;5032958;28;20113;-79
2024/01/14 03:15:15;;;;;;;120.32;41.30;;;-5.30;99.90;;;;;;5048745;28;20509;-80
2024/01/14 03:18:05;;;;;;;130.82;42.92;;;-5.40;99.90;;;;;;5048471;28;20050;-78
2024/01/14 03:20:54;;;;;;;128.85;43.13;;;-5.40;99.90;;;;;;5025468;28;20053;-78
2024/01/14 03:23:41;;;;;;;123.15;41.63;;;-5.50;99.90;;;;;;5042401;28;20079;-78
2024/01/14 03:26:29;;;;;;;128.85;44.85;;;-5.50;99.90;;;;;;5041222;28;20067;-79
2024/01/14 03:29:19;;;;;;;125.95;43.08;;;-5.50;99.90;;;;;;5034425;28;20071;-80
2024/01/14 03:32:07;;;;;;;134.45;44.85;;;-5.50;99.90;;;;;;5041947;28;20037;-80
2024/01/14 03:34:55;;;;;;;121.70;42.22;;;-5.40;99.90;;;;;;5035631;28;20037;-79
2024/01/14 03:37:42;;;;;;;125.07;41.00;;;-5.40;99.90;;;;;;5037982;28;20652;-80
2024/01/14 03:40:30;;;;;;;116.03;39.75;;;-5.40;99.90;;;;;;5060044;28;20017;-79
2024/01/14 03:43:17;;;;;;;118.13;40.25;;;-5.40;99.90;;;;;;5062095;28;20071;-78
2024/01/14 03:46:05;;;;;;;135.15;43.03;;;-5.40;99.90;;;;;;5035435;28;20538;-78
2024/01/14 03:48:53;;;;;;;124.70;42.28;;;-5.40;99.90;;;;;;5038820;28;20037;-78
2024/01/14 03:51:42;;;;;;;113.88;40.83;;;-5.40;99.90;;;;;;5034943;28;20034;-80
2024/01/14 03:54:32;;;;;;;124.85;43.05;;;-5.40;99.90;;;;;;5041166;28;20043;-80
2024/01/14 03:57:20;;;;;;;126.78;39.95;;;-5.40;99.90;;;;;;5045136;28;20029;-76
2024/01/14 04:00:09;;;;;;;124.22;45.13;;;-5.40;99.90;;;;;;5057388;28;20052;-80
2024/01/14 04:02:56;;;;;;;129.90;42.13;;;-5.40;99.90;;;;;;5070993;28;20061;-76
2024/01/14 04:05:45;;;;;;;125.10;42.40;;;-5.40;99.90;;;;;;5044794;28;20025;-77
2024/01/14 04:08:33;;;;;;;136.48;43.90;;;-5.40;99.90;;;;;;5038791;28;20052;-81
2024/01/14 04:11:21;;;;;;;116.25;42.88;;;-5.40;99.90;;;;;;5048609;28;20505;-79
2024/01/14 04:14:08;;;;;;;124.75;41.78;;;-5.40;99.90;;;;;;5051386;28;20049;-80
2024/01/14 04:16:57;;;;;;;138.68;45.35;;;-5.30;99.90;;;;;;5041174;28;20131;-78
2024/01/14 04:19:44;;;;;;;138.77;45.33;;;-5.30;99.90;;;;;;5037213;28;20052;-79
2024/01/14 04:22:36;;;;;;;123.45;40.70;;;-5.40;99.90;;;;;;5043134;28;20052;-78
2024/01/14 04:25:23;;;;;;;140.02;46.03;;;-5.40;99.90;;;;;;5042619;28;20053;-79
2024/01/14 04:28:15;;;;;;;125.10;44.33;;;-5.30;99.90;;;;;;5034522;28;20049;-77
2024/01/14 04:31:05;;;;;;;123.43;44.22;;;-5.30;99.90;;;;;;5045934;28;20072;-81
2024/01/14 04:33:55;;;;;;;130.88;42.45;;;-5.20;99.90;;;;;;5031267;28;20049;-78
2024/01/14 04:36:42;;;;;;;143.23;44.00;;;-5.20;99.90;;;;;;5060305;28;20111;-79
2024/01/14 04:39:30;;;;;;;127.63;41.80;;;-5.20;99.90;;;;;;5055754;28;20044;-78
2024/01/14 04:42:19;;;;;;;124.90;41.28;;;-5.20;99.90;;;;;;5044869;28;20107;-75
2024/01/14 04:45:08;;;;;;;121.15;41.92;;;-5.20;99.90;;;;;;5061451;28;20056;-79
2024/01/14 04:47:57;;;;;;;124.97;41.05;;;-5.10;99.90;;;;;;5056051;28;20047;-76
2024/01/14 04:50:45;;;;;;;135.73;44.78;;;-5.10;99.90;;;;;;5057170;28;20045;-79
2024/01/14 04:53:32;;;;;;;128.20;40.25;;;-5.00;99.90;;;;;;5049861;28;20097;-77
2024/01/14 04:56:20;;;;;;;125.30;41.55;;;-5.00;99.90;;;;;;5052890;28;20669;-78
2024/01/14 04:59:07;;;;;;;118.47;40.65;;;-4.90;99.90;;;;;;5055258;28;20037;-77
2024/01/14 05:01:56;;;;;;;120.78;43.10;;;-4.90;99.90;;;;;;5056827;28;20041;-78
2024/01/14 05:04:43;;;;;;;124.25;42.58;;;-4.90;99.90;;;;;;5044165;28;20031;-78
2024/01/14 05:07:32;;;;;;;142.70;45.60;;;-4.90;99.90;;;;;;5048690;28;20089;-77
2024/01/14 05:10:21;;;;;;;128.05;42.97;;;-4.80;99.90;;;;;;5066818;28;20246;-78
2024/01/14 05:13:08;;;;;;;114.00;40.45;;;-4.80;99.90;;;;;;5061099;28;20045;-77
2024/01/14 05:15:55;;;;;;;121.60;41.40;;;-4.80;99.90;;;;;;5045550;28;20513;-77
2024/01/14 05:18:43;;;;;;;109.43;37.67;;;-4.80;99.90;;;;;;5045865;28;20069;-79
2024/01/14 05:21:33;;;;;;;110.00;37.72;;;-4.80;99.90;;;;;;5054460;28;20047;-77
2024/01/14 05:24:22;;;;;;;106.63;36.95;;;-4.80;99.90;;;;;;5042156;28;20037;-79
2024/01/14 05:27:13;;;;;;;112.00;37.28;;;-4.80;99.90;;;;;;5037168;28;20057;-74
2024/01/14 05:30:05;;;;;;;108.10;33.17;;;-4.80;99.90;;;;;;5033461;28;20415;-79
2024/01/14 05:32:54;;;;;;;100.75;36.13;;;-4.80;99.90;;;;;;5049918;28;20477;-80
2024/01/14 05:35:42;;;;;;;106.60;35.28;;;-4.80;99.90;;;;;;5037345;28;20049;-79
2024/01/14 05:38:31;;;;;;;102.95;34.05;;;-4.80;99.90;;;;;;5039156;28;20037;-78
2024/01/14 05:41:18;;;;;;;105.38;32.42;;;-4.80;99.90;;;;;;5028206;28;20091;-80
2024/01/14 05:44:06;;;;;;;101.38;33.28;;;-4.80;99.90;;;;;;5043892;28;20501;-78
2024/01/14 05:46:56;;;;;;;98.00;33.72;;;-4.90;99.90;;;;;;5044343;28;20055;-80
2024/01/14 05:49:43;;;;;;;92.63;31.58;;;-4.90;99.90;;;;;;5040677;28;20052;-77
2024/01/14 05:52:33;;;;;;;104.55;32.47;;;-4.90;99.90;;;;;;5041584;28;20048;-78
2024/01/14 05:55:21;;;;;;;112.93;33.42;;;-5.00;99.90;;;;;;5039821;28;20502;-78
2024/01/14 05:58:08;;;;;;;99.35;33.53;;;-5.00;99.90;;;;;;5043031;28;20037;-80
2024/01/14 06:00:55;;;;;;;93.72;30.15;;;-5.00;99.90;;;;;;5045606;28;20409;-78
2024/01/14 06:03:43;;;;;;;102.65;33.15;;;-5.00;99.90;;;;;;5051783;28;20045;-77
2024/01/14 06:06:32;;;;;;;102.65;32.58;;;-5.00;99.90;;;;;;5049495;28;20099;-80
2024/01/14 06:09:21;;;;;;;90.32;30.70;;;-5.00;99.90;;;;;;5040717;28;20474;-79
2024/01/14 06:12:32;;;;;;;92.72;30.70;;;-5.00;99.90;;;;;;5054113;28;20108;-78
2024/01/14 06:15:24;;;;;;;99.32;31.90;;;-5.00;99.90;;;;;;5060791;28;20095;-77
2024/01/14 06:18:14;;;;;;;92.45;29.85;;;-5.00;99.90;;;;;;5046235;28;20049;-79
2024/01/14 06:21:03;;;;;;;94.65;31.42;;;-5.10;99.90;;;;;;5047448;28;20505;-78
2024/01/14 06:23:50;;;;;;;97.65;32.10;;;-5.10;99.40;;;;;;5044144;28;20565;-79
2024/01/14 06:26:37;;;;;;;98.63;32.08;;;-5.10;98.40;;;;;;5045282;28;20532;-79
2024/01/14 06:29:27;;;;;;;109.65;34.17;;;-5.00;99.90;;;;;;5044661;28;20131;-77
2024/01/14 06:32:16;;;;;;;98.95;33.15;;;-5.00;95.60;;;;;;5041194;28;20056;-78
2024/01/14 06:35:05;;;;;;;110.60;34.55;;;-5.10;96.00;;;;;;5035108;28;20042;-79
2024/01/14 06:37:52;;;;;;;106.88;32.70;;;-5.10;97.20;;;;;;5055337;28;20037;-76
2024/01/14 06:40:39;;;;;;;108.65;32.40;;;-5.20;99.90;;;;;;5051967;28;20104;-78
2024/01/14 06:43:35;;;;;;;97.07;32.90;;;-5.20;99.90;;;;;;5054562;28;20072;-77
2024/01/14 06:46:23;;;;;;;97.43;32.63;;;-5.20;99.90;;;;;;5054120;28;20033;-80
2024/01/14 06:49:12;;;;;;;100.43;29.80;;;-5.30;99.90;;;;;;5039743;28;20424;-78
2024/01/14 06:51:59;;;;;;;104.78;31.83;;;-5.30;96.90;;;;;;5049784;28;20543;-79
2024/01/14 06:54:47;;;;;;;102.28;30.85;;;-5.30;97.50;;;;;;5029554;28;20037;-79
2024/01/14 06:57:34;;;;;;;106.50;33.00;;;-5.30;99.90;;;;;;5033638;28;20044;-76
2024/01/14 07:00:24;;;;;;;117.97;39.58;;;-5.20;98.90;;;;;;5053602;28;20171;-78
2024/01/14 07:03:15;;;;;;;95.03;32.80;;;-5.20;97.70;;;;;;5069813;28;20033;-78
2024/01/14 07:06:06;;;;;;;99.40;31.80;;;-5.20;97.00;;;;;;5062635;28;20048;-78
2024/01/14 07:08:54;;;;;;;92.65;28.70;;;-5.20;95.80;;;;;;5047433;28;20040;-78
2024/01/14 07:11:42;;;;;;;109.78;32.90;;;-5.30;92.50;;;;;;5044788;28;20069;-77
2024/01/14 07:14:30;;;;;;;100.50;33.92;;;-5.20;94.40;;;;;;5037236;28;20128;-78
2024/01/14 07:17:18;;;;;;;102.10;34.45;;;-5.30;92.10;;;;;;5043696;28;20100;-79
2024/01/14 07:20:09;;;;;;;99.63;34.20;;;-5.30;98.10;;;;;;5043597;28;20041;-80
2024/01/14 07:22:56;;;;;;;120.28;34.80;;;-5.30;99.70;;;;;;5045713;28;20044;-80
2024/01/14 07:26:14;;;;;;;91.45;32.15;;;-5.30;99.90;;;;;;5040270;28;20068;-79
2024/01/14 07:29:01;;;;;;;103.82;34.40;;;-5.30;95.00;;;;;;5034429;28;20075;-81
2024/01/14 07:31:51;;;;;;;112.97;36.50;;;-5.30;98.50;;;;;;5039112;28;20178;-77
2024/01/14 07:34:40;;;;;;;109.00;36.58;;;-5.20;99.90;;;;;;5035310;28;20516;-78
2024/01/14 07:37:33;;;;;;;107.57;35.15;;;-5.20;99.90;;;;;;5030446;28;20033;-79
2024/01/14 07:40:21;;;;;;;102.72;35.03;;;-5.20;99.90;;;;;;5041335;28;20067;-75
2024/01/14 07:43:08;;;;;;;112.38;34.85;;;-5.10;99.90;;;;;;5058860;28;20038;-76
2024/01/14 07:45:59;;;;;;;114.43;37.38;;;-5.20;99.90;;;;;;5055197;28;20098;-74
2024/01/14 07:48:47;;;;;;;114.55;36.63;;;-5.20;95.40;;;;;;5059435;28;20033;-73
2024/01/14 07:51:35;;;;;;;121.57;38.67;;;-5.20;99.80;;;;;;5067417;28;20104;-76
2024/01/14 07:54:23;;;;;;;124.10;39.00;;;-5.20;99.90;;;;;;5064866;28;20032;-77
2024/01/14 07:57:11;;;;;;;119.53;38.72;;;-5.20;99.90;;;;;;5053497;28;20060;-76
2024/01/14 08:00:00;;;;;;;115.90;38.42;;;-5.20;99.90;;;;;;5060200;28;20041;-77
2024/01/14 08:03:04;;;;;;;122.93;40.97;;;-5.20;99.90;;;;;;5056010;28;20041;-77
2024/01/14 08:06:03;;;;;;;120.03;36.95;;;-5.30;99.90;;;;;;5039512;28;20056;-77
2024/01/14 08:08:53;;;;;;;109.88;37.35;;;-5.20;99.90;;;;;;5041037;28;20045;-77
2024/01/14 08:11:41;;;;;;;111.60;37.22;;;-5.30;99.90;;;;;;5045345;28;20037;-78
2024/01/14 08:14:30;;;;;;;116.97;36.53;;;-5.40;99.40;;;;;;5051262;28;20039;-80
2024/01/14 08:17:19;;;;;;;122.88;38.88;;;-5.40;99.90;;;;;;5046016;28;20521;-77
2024/01/14 08:20:11;;;;;;;121.50;40.13;;;-5.40;99.90;;;;;;5047332;28;20049;-77
2024/01/14 08:22:59;;;;;;;134.50;41.78;;;-5.50;99.90;;;;;;5043784;28;20041;-78
2024/01/14 08:25:46;;;;;;;138.25;44.55;;;-5.60;99.90;;;;;;5044880;28;20454;-79
2024/01/14 08:28:36;;;;;;;135.23;43.80;;;-5.60;99.90;;;;;;5042014;28;20041;-78
2024/01/14 08:31:31;;;;;;;123.13;41.38;;;-5.50;99.90;;;;;;5033270;28;20040;-79
2024/01/14 08:34:19;;;;;;;123.80;41.03;;;-5.50;99.90;;;;;;5050794;28;20045;-77
2024/01/14 08:37:07;;;;;;;133.95;45.08;;;-5.40;99.90;;;;;;5048414;28;20052;-78
2024/01/14 08:40:00;;;;;;;135.48;43.70;;;-5.50;99.90;;;;;;5037857;28;20107;-77
2024/01/14 08:42:48;;;;;;;122.22;42.15;;;-5.50;99.90;;;;;;5050521;28;20527;-76
2024/01/14 08:45:35;;;;;;;137.55;45.75;;;-5.50;99.90;;;;;;5047203;28;20041;-77
2024/01/14 08:48:23;;;;;;;149.50;48.38;;;-5.40;99.90;;;;;;5045970;28;20043;-78
2024/01/14 08:51:13;;;;;;;122.43;39.92;;;-5.40;99.90;;;;;;5040389;28;20114;-79
2024/01/14 08:54:09;;;;;;;126.65;41.35;;;-5.40;99.90;;;;;;5047868;28;20033;-78
2024/01/14 08:57:00;;;;;;;135.35;44.28;;;-5.40;99.90;;;;;;5045319;28;20049;-78
2024/01/14 08:59:51;;;;;;;130.00;42.40;;;-5.40;99.90;;;;;;5041503;28;20081;-79
2024/01/14 09:02:39;;;;;;;127.90;42.03;;;-5.30;99.90;;;;;;5038133;28;20045;-77
2024/01/14 09:05:28;;;;;;;131.98;43.28;;;-5.30;98.30;;;;;;5031542;28;20049;-78
2024/01/14 09:08:25;;;;;;;121.18;40.75;;;-5.30;99.90;;;;;;5036727;28;20037;-78
2024/01/14 09:11:15;;;;;;;118.60;39.70;;;-5.30;91.40;;;;;;5040003;28;20045;-77
2024/01/14 09:14:05;;;;;;;131.57;42.53;;;-5.20;86.80;;;;;;5026129;28;20049;-79
2024/01/14 09:16:58;;;;;;;124.43;42.17;;;-5.00;89.70;;;;;;5028887;28;20056;-78
2024/01/14 09:19:51;;;;;;;117.97;41.78;;;-4.90;73.10;;;;;;5059050;28;20041;-76
2024/01/14 09:22:39;;;;;;;117.10;39.47;;;-4.80;44.70;;;;;;5051497;28;20049;-77
2024/01/14 09:25:31;;;;;;;115.82;41.28;;;-4.80;8.20;;;;;;5068437;28;20120;-77
2024/01/14 09:28:24;;;;;;;116.95;38.67;;;-4.80;1.00;;;;;;5061429;28;20037;-79
2024/01/14 09:31:13;;;;;;;101.90;37.20;;;-4.90;1.00;;;;;;5049230;28;20051;-77
2024/01/14 09:34:07;;;;;;;112.15;40.35;;;-4.80;1.00;;;;;;5053063;28;20073;-79
2024/01/14 09:36:55;;;;;;;109.63;37.47;;;-4.70;1.00;;;;;;5066693;28;20029;-76
2024/01/14 09:39:42;;;;;;;99.90;38.05;;;-4.60;1.00;;;;;;5056625;28;20583;-78
2024/01/14 09:42:38;;;;;;;109.22;37.28;;;-4.50;1.00;;;;;;5056100;28;20126;-80
2024/01/14 09:45:26;;;;;;;107.43;36.40;;;-4.40;99.90;;;;;;5066795;28;20029;-78
2024/01/14 09:48:25;;;;;;;101.30;37.90;;;-4.20;99.90;;;;;;5064975;28;20163;-78
2024/01/14 09:51:15;;;;;;;102.63;35.65;;;-4.20;99.90;;;;;;5046568;28;20047;-79
2024/01/14 09:54:11;;;;;;;99.68;33.15;;;-4.40;99.90;;;;;;5044219;28;20049;-77
2024/01/14 09:57:14;;;;;;;105.18;37.47;;;-4.50;99.90;;;;;;5030245;28;20045;-77
2024/01/14 10:00:16;;;;;;;109.75;37.10;;;-4.50;99.90;;;;;;5028493;28;20485;-78
2024/01/14 10:03:05;;;;;;;100.40;35.63;;;-3.90;99.90;;;;;;5056520;28;20101;-77
2024/01/14 10:06:00;;;;;;;92.88;32.97;;;-3.70;1.00;;;;;;5039302;28;20119;-79
2024/01/14 10:08:50;;;;;;;96.68;33.22;;;-3.60;1.00;;;;;;5033963;28;20145;-77
2024/01/14 10:11:38;;;;;;;84.63;31.42;;;-3.70;99.90;;;;;;5046075;28;20037;-78
2024/01/14 10:14:29;;;;;;;85.90;33.20;;;-3.50;1.00;;;;;;5041149;28;20665;-79
2024/01/14 10:17:18;;;;;;;89.30;33.47;;;-2.90;99.90;;;;;;5042240;28;20049;-80
2024/01/14 10:20:06;;;;;;;79.40;31.50;;;-2.10;99.90;;;;;;5042713;28;20056;-78
2024/01/14 10:23:03;;;;;;;74.93;31.77;;;-1.60;99.90;;;;;;5041808;28;20581;-79
2024/01/14 10:25:54;;;;;;;74.90;29.40;;;-1.30;1.00;;;;;;5043613;28;20045;-79
2024/01/14 10:28:45;;;;;;;79.00;29.63;;;-1.90;99.90;;;;;;5045195;28;20040;-80
2024/01/14 10:31:32;;;;;;;74.75;29.15;;;-1.70;99.90;;;;;;5046825;28;20061;-77
2024/01/14 10:34:20;;;;;;;72.55;30.02;;;-1.50;99.90;;;;;;5047601;28;20055;-78
2024/01/14 10:37:15;;;;;;;67.85;27.75;;;-0.80;14.70;;;;;;5029613;28;20126;-78
2024/01/14 10:40:06;;;;;;;72.45;29.45;;;-0.50;1.00;;;;;;5049528;28;20053;-76
2024/01/14 10:42:59;;;;;;;65.95;27.80;;;0.20;99.90;;;;;;5061736;28;20175;-77
2024/01/14 10:45:47;;;;;;;65.75;28.35;;;1.00;99.90;;;;;;5035585;28;20124;-82
2024/01/14 10:48:39;;;;;;;65.45;27.10;;;1.80;11.10;;;;;;5046079;28;20042;-79
2024/01/14 10:51:33;;;;;;;62.03;28.00;;;1.30;1.00;;;;;;5066661;28;20096;-80
2024/01/14 10:54:41;;;;;;;65.45;26.95;;;1.20;1.00;;;;;;5055914;28;20037;-81
2024/01/14 10:57:40;;;;;;;60.50;27.38;;;1.80;1.00;;;;;;5062616;28;20049;-80
2024/01/14 11:00:36;;;;;;;56.05;26.50;;;2.80;99.90;;;;;;5065322;28;20128;-79
2024/01/14 11:03:24;;;;;;;56.15;27.35;;;2.70;99.90;;;;;;5039592;28;20051;-79
2024/01/14 11:06:13;;;;;;;56.88;25.20;;;2.20;99.90;;;;;;5049908;28;20041;-81
2024/01/14 11:09:03;;;;;;;54.72;26.05;;;2.90;99.90;;;;;;5047435;28;20403;-77
2024/01/14 11:12:03;;;;;;;63.63;26.95;;;3.30;99.90;;;;;;5043296;28;20318;-80
2024/01/14 11:15:03;;;;;;;59.47;27.05;;;4.00;99.90;;;;;;5046716;28;20081;-80
2024/01/14 11:17:54;;;;;;;58.72;27.05;;;4.50;99.90;;;;;;5045789;28;20135;-80
2024/01/14 11:20:53;;;;;;;62.95;28.20;;;4.30;99.90;;;;;;5042985;28;20029;-79
2024/01/14 11:24:09;;;;;;;55.55;25.80;;;3.60;99.90;;;;;;5044095;28;20068;-79
2024/01/14 11:26:59;;;;;;;54.95;24.75;;;3.10;99.90;;;;;;5044376;28;20067;-76
2024/01/14 11:29:59;;;;;;;50.45;23.23;;;3.50;99.90;;;;;;5039207;28;20029;-79
2024/01/14 11:32:48;;;;;;;50.95;24.33;;;4.00;99.90;;;;;;5046232;28;20049;-80
2024/01/14 11:35:38;;;;;;;49.20;22.13;;;3.30;99.90;;;;;;5042877;28;20048;-80
2024/01/14 11:38:49;;;;;;;50.17;23.05;;;3.00;99.90;;;;;;5039914;28;20048;-81
2024/01/14 11:41:37;;;;;;;53.00;22.85;;;3.70;99.90;;;;;;5039154;28;20049;-81
2024/01/14 11:44:33;;;;;;;48.20;22.17;;;4.10;99.90;;;;;;5039854;28;20201;-81
2024/01/14 11:47:34;;;;;;;45.72;22.08;;;3.80;99.90;;;;;;5019496;28;20045;-80
2024/01/14 11:50:27;;;;;;;48.95;22.45;;;3.90;99.90;;;;;;5033603;28;20501;-78
2024/01/14 11:53:21;;;;;;;46.90;21.25;;;3.80;99.90;;;;;;5037054;28;20135;-80
2024/01/14 11:56:09;;;;;;;49.33;22.05;;;4.50;99.90;;;;;;5043942;28;20134;-82
2024/01/14 11:58:59;;;;;;;43.72;20.77;;;4.60;99.90;;;;;;5024351;28;20053;-78
2024/01/14 12:01:47;;;;;;;49.78;22.08;;;4.80;99.90;;;;;;5033127;28;20052;-80
2024/01/14 12:04:35;;;;;;;50.47;22.50;;;4.80;99.90;;;;;;5031292;28;20048;-80
2024/01/14 12:07:27;;;;;;;50.15;22.48;;;5.10;99.90;;;;;;5043668;28;20458;-80
2024/01/14 12:10:18;;;;;;;48.78;22.80;;;4.60;99.90;;;;;;5041163;28;20041;-81
2024/01/14 12:13:07;;;;;;;44.58;21.77;;;5.10;99.90;;;;;;5039548;28;20049;-80
2024/01/14 12:15:59;;;;;;;47.35;22.17;;;6.10;99.90;;;;;;5039753;28;20041;-80
2024/01/14 12:18:51;;;;;;;48.40;22.65;;;5.20;99.90;;;;;;5058995;28;20100;-77
2024/01/14 12:21:48;;;;;;;46.92;22.60;;;5.30;99.90;;;;;;5068105;28;20029;-79
2024/01/14 12:24:43;;;;;;;46.53;21.05;;;5.30;99.90;;;;;;5069950;28;20096;-79
2024/01/14 12:27:32;;;;;;;49.13;24.25;;;5.60;99.90;;;;;;5050836;28;20504;-80
2024/01/14 12:30:39;;;;;;;51.15;23.02;;;5.80;99.90;;;;;;5040590;28;20049;-82
2024/01/14 12:33:34;;;;;;;48.63;22.98;;;5.50;99.90;;;;;;5037510;28;20048;-77
2024/01/14 12:36:30;;;;;;;41.80;21.58;;;5.40;99.90;;;;;;5036316;28;20139;-80
2024/01/14 12:39:54;;;;;;;35.77;17.30;;;4.80;99.90;;;;;;5048147;28;20045;-80
2024/01/14 12:42:46;;;;;;;46.67;22.60;;;4.60;99.90;;;;;;5032957;28;20546;-80
2024/01/14 12:45:45;;;;;;;48.13;21.27;;;4.40;99.90;;;;;;5053047;28;20045;-79
2024/01/14 12:48:45;;;;;;;46.10;22.42;;;5.10;99.90;;;;;;5034862;28;20069;-79
2024/01/14 12:51:42;;;;;;;45.30;21.23;;;5.80;99.90;;;;;;5052068;28;20045;-83
2024/01/14 12:54:30;;;;;;;53.00;23.90;;;5.80;99.90;;;;;;5040422;28;20682;-81
2024/01/14 12:57:22;;;;;;;47.20;23.00;;;5.60;99.90;;;;;;5052594;28;20063;-77
2024/01/14 13:00:15;;;;;;;44.75;22.08;;;6.30;99.90;;;;;;5045528;28;20049;-82
2024/01/14 13:03:08;;;;;;;42.85;21.40;;;6.60;99.90;;;;;;5055737;28;20045;-78
2024/01/14 13:05:56;;;;;;;44.30;23.63;;;7.40;99.90;;;;;;5045683;28;20049;-81
2024/01/14 13:08:47;;;;;;;46.60;23.42;;;7.40;99.90;;;;;;5042803;28;20144;-79
2024/01/14 13:11:34;;;;;;;45.70;23.20;;;7.50;99.90;;;;;;5042905;28;20498;-80
2024/01/14 13:14:22;;;;;;;42.40;22.35;;;6.90;99.90;;;;;;5039200;28;20036;-82
2024/01/14 13:17:10;;;;;;;42.97;22.10;;;6.90;99.90;;;;;;5047330;28;20033;-78
2024/01/14 13:19:58;;;;;;;45.25;22.13;;;7.40;99.90;;;;;;5055809;28;20053;-80
2024/01/14 13:22:46;;;;;;;47.03;23.45;;;7.90;99.90;;;;;;5032105;28;20115;-78
2024/01/14 13:25:35;;;;;;;43.80;22.75;;;7.60;99.90;;;;;;5032483;28;20041;-81
2024/01/14 13:28:25;;;;;;;45.45;22.25;;;7.30;99.90;;;;;;5041043;28;20130;-79
2024/01/14 13:31:14;;;;;;;43.53;22.73;;;7.10;99.00;;;;;;5032652;28;20445;-80
2024/01/14 13:34:07;;;;;;;47.53;23.23;;;7.30;99.90;;;;;;5048619;28;20037;-75
2024/01/14 13:37:00;;;;;;;48.63;24.02;;;6.70;96.90;;;;;;5052177;28;20114;-79
2024/01/14 13:39:58;;;;;;;52.90;23.52;;;5.80;98.80;;;;;;5046113;28;20083;-80
2024/01/14 13:42:46;;;;;;;49.42;23.02;;;5.70;96.10;;;;;;5045244;28;20725;-80
2024/01/14 13:45:38;;;;;;;42.08;19.23;;;6.30;96.40;;;;;;5045406;28;20124;-80
2024/01/14 13:48:28;;;;;;;44.80;22.08;;;6.20;95.00;;;;;;5050304;28;20049;-77
2024/01/14 13:51:23;;;;;;;47.35;22.02;;;6.20;93.10;;;;;;5049888;28;20048;-81
2024/01/14 13:54:11;;;;;;;44.35;22.17;;;6.00;92.00;;;;;;5047538;28;20366;-80
2024/01/14 13:57:07;;;;;;;43.13;22.88;;;5.80;93.30;;;;;;5050278;28;20061;-78
2024/01/14 13:59:56;;;;;;;49.75;22.85;;;5.80;96.20;;;;;;5051778;28;20053;-81
2024/01/14 14:02:44;;;;;;;46.20;22.98;;;5.40;99.90;;;;;;5059235;28;20052;-80
2024/01/14 14:05:49;;;;;;;46.97;21.85;;;5.00;99.90;;;;;;5053107;28;20042;-79
2024/01/14 14:08:44;;;;;;;47.63;21.65;;;5.20;99.90;;;;;;5046342;28;20041;-81
2024/01/14 14:11:31;;;;;;;42.45;21.10;;;5.50;99.90;;;;;;5039537;28;20041;-80
2024/01/14 14:14:19;;;;;;;43.95;21.73;;;5.90;99.90;;;;;;5054742;28;20588;-80
2024/01/14 14:17:15;;;;;;;39.92;20.13;;;6.70;99.90;;;;;;5055561;28;20258;-80
2024/01/14 14:20:08;;;;;;;37.33;18.92;;;7.20;99.90;;;;;;5030142;28;20041;-80